Tiempo atmosférico en la estación meteorológica de Lorca, Zarcilla de Ramos, Murcia (674 m.)



Fecha
DESCASC
Temp. máxima en grados centígrados (hora)
DESCASC
Temp. mínima en grados centígrados (hora)
DESCASC
Temp. media en grados centígrados
DESCASC
Racha de viento máxima en m/sg (hora)
DESCASC
Velocidad máxima media en intervalos de 10 minutos(hora)
DESCASC
Precipitaciones diarias en mm
DESCASC
Precipitaciones de 00:00 a 06:00 en mm
DESCASC
Precipitaciones de 06:00 a 12:00 en mm
DESCASC
Precipitaciones de 12:00 a 18:00 en mm
DESCASC
Precipitaciones de 18:00 a 24:00 en mm
DESCASC
27-10-2020 21.4 (16:20) 6.5 (05:10) 13.9 8.06 (23:30) 6.11 (08:20) 0 0 0 0 0
26-10-2020 17.4 (15:00) 10.2 (21:30) 13.8 16.94 (11:20) 10.28 (11:20) 0 0 0 0 0
25-10-2020 23.8 (14:50) 10.3 (07:50) 17 13.89 (23:59) 7.78 (23:59) 0 0 0 0 0
24-10-2020 22.9 (17:00) 8.7 (00:00) 15.8 7.22 (01:50) 5 (17:20) 0 0 0 0 0
23-10-2020 21.8 (16:10) 11.1 (00:00) 16.4 9.72 (15:40) 6.11 (15:00) 0 0 0 0 0
22-10-2020 17.9 (05:10) 13.6 (00:00) 15.8 6.39 (08:30) 3.61 (05:00) 2.6 0 0.8 1.8 0
21-10-2020 26.3 (14:50) 13.3 (00:00) 19.8 12.78 (05:10) 7.5 (05:10) 0 0 0 0 0
20-10-2020 23.2 (17:20) 8.6 (00:00) 15.9 8.33 (17:00) 6.39 (17:00) 0 0 0 0 0
19-10-2020 23 (16:10) 4.6 (00:00) 13.8 7.22 (16:30) 4.72 (14:50) 0 0 0 0 0
18-10-2020 22.9 (14:00) 5.4 (00:00) 14.1 8.33 (16:00) 5 (16:50) 0 0 0 0 0
17-10-2020 23.8 (16:10) 4 (00:00) 13.9 7.5 (16:20) 4.44 (17:30) 0 0 0 0 0
16-10-2020 21.3 (15:20) 6.6 (00:00) 13.9 9.72 (15:50) 6.11 (15:50) 0 0 0 0 0
15-10-2020 21.7 (15:20) 5.8 (00:00) 13.8 9.17 (12:50) 6.39 (17:30) 0 0 0 0 0
14-10-2020 24.3 (16:00) 11.1 (00:00) 17.7 10.83 (17:40) 6.67 (17:40) 0 0 0 0 0
13-10-2020 26.1 (15:50) 7.8 (00:00) 17 8.89 (04:40) 6.11 (04:40) 0 0 0 0 0
12-10-2020 22.8 (17:00) 8.1 (00:00) 15.4 9.72 (12:40) 5.83 (00:50) 0 0 0 0 0
11-10-2020 22.5 (16:40) 11.2 (00:00) 16.8 8.33 (12:20) 5.28 (12:20) 0 0 0 0 0
10-10-2020 25.4 (15:20) 11.8 (00:00) 18.6 8.06 (16:40) 5.83 (16:40) 0 0 0 0 0
09-10-2020 26.8 (13:20) 11.8 (00:00) 19.3 6.67 (14:30) 3.89 (13:40) 0 0 0 0 0
08-10-2020 27.1 (16:40) 10.8 (00:00) 19 6.94 (14:40) 4.17 (14:50) 0 0 0 0 0
07-10-2020 30.5 (15:30) 12.7 (00:00) 21.6 7.78 (18:00) 4.72 (03:40) 0 0 0 0 0
06-10-2020 27.9 (16:40) 8 (00:00) 17.9 5.83 (17:50) 3.61 (17:50) 0 0 0 0 0
05-10-2020 25.3 (16:40) 11.5 (00:00) 18.4 8.06 (17:00) 5.56 (17:00) 0 0 0 0 0
04-10-2020 24.2 (16:00) 8.8 (00:00) 16.5 11.94 (14:30) 7.5 (16:40) 0 0 0 0 0
03-10-2020 20.1 (17:10) 7.7 (00:00) 13.9 11.11 (20:30) 7.22 (14:00) 0 0 0 0 0
02-10-2020 23.1 (16:10) 12 (00:00) 17.6 20.83 (16:30) 13.06 (16:30) 1.8 0 0 0 1.8
01-10-2020 30.9 (16:50) 16.2 (00:00) 23.6 10.83 (15:50) 6.39 (17:50) 0 0 0 0 0
30-09-2020 27.6 (16:20) 11 (00:00) 19.3 5.56 (17:30) 3.89 (17:30) 0 0 0 0 0

Gráficas

Temp. máximas Temp. mínimas Temp. medias Precipitaciones Rachas de viento máximas Velocidades máximas media en intervalos de 10 minutos

Datos horarios

Fecha y hora oficial Temperatura (ºC) Velocidad del viento (km/h) Dirección del viento Racha (km/h) Dirección de racha Precipitación (mm) Presión (hPa) Tendencia (hPa) Humedad (%)
2020-10-29 23:00:00 10.9 4 Norte 8 Noroeste 0 -- -- 78
2020-10-29 22:00:00 12.2 5 Noroeste 10 Noroeste 0 -- -- 75
2020-10-29 21:00:00 12.2 3 Norte 5 Norte 0 -- -- 74
2020-10-29 20:00:00 14.3 2 Norte 8 Nordeste 0 -- -- 64
2020-10-29 19:00:00 17.2 3 Sudeste 15 Sudeste 0 -- -- 59
2020-10-29 18:00:00 20 12 Sudeste 17 Sudeste 0 -- -- 50
2020-10-29 17:00:00 22.5 10 Sudeste 25 Sudeste 0 -- -- 42
2020-10-29 16:00:00 24.4 13 Sur 26 Sur 0 -- -- 40
2020-10-29 15:00:00 24.7 9 Sudeste 19 Sudeste 0 -- -- 39
2020-10-29 14:00:00 24.3 6 Sudeste 21 Este 0 -- -- 39
2020-10-29 13:00:00 23.5 6 Este 17 Sudeste 0 -- -- 43
2020-10-29 12:00:00 22.3 5 Sudeste 10 Sur 0 -- -- 46
2020-10-29 11:00:00 20.1 5 Sudoeste 11 Oeste 0 -- -- 52
2020-10-29 10:00:00 16.9 9 Noroeste 15 Noroeste 0 -- -- 62
2020-10-29 09:00:00 13.6 4 Sur 22 Noroeste 0 -- -- 68
2020-10-29 08:00:00 11.8 13 Noroeste 21 Noroeste 0 -- -- 76
2020-10-29 07:00:00 12.1 15 Noroeste 23 Noroeste 0 -- -- 73
2020-10-29 06:00:00 12 12 Noroeste 24 Noroeste 0 -- -- 71
2020-10-29 05:00:00 11.5 5 Noroeste 22 Noroeste 0 -- -- 72
2020-10-29 04:00:00 10.9 3 Sudoeste 16 Norte 0 -- -- 74
2020-10-29 03:00:00 11.8 10 Noroeste 17 Norte 0 -- -- 72
2020-10-29 02:00:00 12.4 12 Noroeste 19 Noroeste 0 -- -- 70
2020-10-29 01:00:00 12.8 10 Noroeste 19 Noroeste 0 -- -- 67
2020-10-29 00:00:00 13.5 9 Norte 22 Noroeste 0 -- -- 67
2020-10-28 23:00:00 13.6 8 Norte 20 Norte 0 -- -- 67
2020-10-28 22:00:00 13.6 12 Norte 19 Noroeste 0 -- -- 65
2020-10-28 21:00:00 14.8 9 Noroeste 14 Noroeste 0 -- -- 58
2020-10-28 20:00:00 14.1 5 Norte 8 Nordeste 0 -- -- 50
2020-10-28 19:00:00 16.5 2 Noroeste 8 Este 0 -- -- 42
2020-10-28 18:00:00 21 6 Este 13 Este 0 -- -- 34
2020-10-28 17:00:00 23 8 Sudeste 19 Sudeste 0 -- -- 29
2020-10-28 16:00:00 24.4 10 Sudeste 22 Sudeste 0 -- -- 28
2020-10-28 15:00:00 24.9 5 Sudeste 15 Sudeste 0 -- -- 30
2020-10-28 14:00:00 24.1 4 Sur 13 Este 0 -- -- 29
2020-10-28 13:00:00 23.2 7 Sudeste 14 Sur 0 -- -- 29
2020-10-28 12:00:00 20.6 4 Nordeste 10 Nordeste 0 -- -- 31
2020-10-28 11:00:00 19 3 Nordeste 9 Sur 0 -- -- 35
2020-10-28 10:00:00 16.2 4 Sudeste 7 Sudeste 0 -- -- 40
2020-10-28 09:00:00 11.9 0 Calma 6 Sudoeste 0 -- -- 50
2020-10-28 08:00:00 8.6 5 Sudoeste 19 Noroeste 0 -- -- 56
2020-10-28 07:00:00 9.9 20 Noroeste 30 Noroeste 0 -- -- 54
2020-10-28 06:00:00 10.1 16 Noroeste 26 Noroeste 0 -- -- 53
2020-10-28 05:00:00 9.4 17 Norte 23 Norte 0 -- -- 56
2020-10-28 04:00:00 8.9 12 Norte 21 Norte 0 -- -- 55
2020-10-28 03:00:00 10.4 8 Noroeste 18 Norte 0 -- -- 52
2020-10-28 02:00:00 9.1 7 Norte 19 Noroeste 0 -- -- 52
2020-10-28 01:00:00 11.1 7 Noroeste 24 Noroeste 0 -- -- 47
2020-10-28 00:00:00 12.2 14 Noroeste 29 Noroeste 0 -- -- 43
2020-10-27 23:00:00 10.9 6 Noroeste 15 Noroeste 0 -- -- 46
2020-10-27 22:00:00 12.3 11 Norte 16 Norte 0 -- -- 40
2020-10-27 21:00:00 10 6 Noroeste 12 Noroeste 0 -- -- 63
2020-10-27 20:00:00 11.7 4 Noroeste 7 Noroeste 0 -- -- 60
2020-10-27 19:00:00 14.1 2 Norte 14 Este 0 -- -- 54
2020-10-27 18:00:00 17.2 7 Este 16 Sur 0 -- -- 45
2020-10-27 17:00:00 20.4 10 Sudeste 16 Sur 0 -- -- 30
2020-10-27 16:00:00 21 7 Sur 15 Sudeste 0 -- -- 23
2020-10-27 15:00:00 19.5 8 Sur 17 Sudoeste 0 -- -- 26
2020-10-27 14:00:00 19.8 9 Sur 17 Sur 0 -- -- 26
2020-10-27 13:00:00 18.4 8 Sudeste 24 Sur 0 -- -- 30
2020-10-27 12:00:00 16.3 6 Sur 18 Oeste 0 -- -- 36
2020-10-27 11:00:00 14.5 8 Sudoeste 16 Sudoeste 0 -- -- 41
2020-10-27 10:00:00 11.9 4 Sudoeste 18 Oeste 0 -- -- 52
2020-10-27 09:00:00 9.3 10 Oeste 29 Noroeste 0 -- -- 59
2020-10-27 08:00:00 6.9 21 Noroeste 28 Noroeste 0 -- -- 68
2020-10-27 07:00:00 6.9 19 Noroeste 27 Noroeste 0 -- -- 68
2020-10-27 06:00:00 7.1 15 Noroeste 26 Noroeste 0 -- -- 67
2020-10-27 05:00:00 6.6 12 Norte 23 Nordeste 0 -- -- 70
2020-10-27 04:00:00 7.3 13 Norte 23 Noroeste 0 -- -- 66
2020-10-27 03:00:00 7.2 13 Noroeste 24 Noroeste 0 -- -- 67
2020-10-27 02:00:00 8.2 5 Norte 18 Nordeste 0 -- -- 64
2020-10-27 01:00:00 8.7 8 Norte 24 Norte 0 -- -- 62
2020-10-27 00:00:00 10.4 17 Oeste 40 Oeste 0 -- -- 57
2020-10-26 23:00:00 10.7 20 Oeste 33 Oeste 0 -- -- 56
2020-10-26 22:00:00 10.5 14 Oeste 23 Oeste 0 -- -- 54
2020-10-26 21:00:00 10.8 12 Oeste 18 Oeste 0 -- -- 50
2020-10-26 20:00:00 11.4 12 Oeste 18 Noroeste 0 -- -- 47
2020-10-26 19:00:00 12.9 17 Noroeste 28 Oeste 0 -- -- 41
2020-10-26 18:00:00 14.4 19 Oeste 33 Oeste 0 -- -- 38
2020-10-26 17:00:00 15.7 23 Noroeste 38 Oeste 0 -- -- 35
2020-10-26 16:00:00 17.3 15 Noroeste 36 Oeste 0 -- -- 32
2020-10-26 15:00:00 17.4 23 Oeste 39 Oeste 0 -- -- 33
2020-10-26 14:00:00 16.5 19 Oeste 49 Noroeste 0 -- -- 34
2020-10-26 13:00:00 15.9 27 Oeste 51 Oeste 0 -- -- 37
2020-10-26 12:00:00 15.4 29 Noroeste 61 Noroeste 0 -- -- 40
2020-10-26 11:00:00 14.9 28 Oeste 52 Oeste 0 -- -- 43
2020-10-26 10:00:00 14.2 16 Oeste 44 Oeste 0 -- -- 44
2020-10-26 09:00:00 12.8 26 Oeste 43 Oeste 0 -- -- 46
2020-10-26 08:00:00 12.7 25 Oeste 41 Oeste 0 -- -- 47
2020-10-26 07:00:00 12.9 10 Noroeste 22 Oeste 0 -- -- 59
2020-10-26 06:00:00 13.5 10 Noroeste 33 Noroeste 0 -- -- 63
2020-10-26 05:00:00 14.3 17 Oeste 26 Sudoeste 0 -- -- 70
2020-10-26 04:00:00 14.7 14 Sudoeste 30 Oeste 0 -- -- 71
2020-10-26 03:00:00 14.7 22 Sudoeste 48 Sudoeste 0 -- -- 71
2020-10-26 02:00:00 15 30 Sudoeste 49 Sudoeste 0 -- -- 67
2020-10-26 01:00:00 14.8 25 Sudoeste 52 Sudoeste 0 -- -- 65
2020-10-26 00:00:00 14.5 28 Oeste 50 Sudoeste 0 -- -- 63
2020-10-25 23:00:00 14.4 11 Oeste 36 Oeste 0 -- -- 59
2020-10-25 22:00:00 15.2 16 Sudoeste 36 Sudoeste 0 -- -- 57
2020-10-25 21:00:00 15.9 14 Sudoeste 33 Sudoeste 0 -- -- 53
2020-10-25 20:00:00 16.8 18 Sudoeste 35 Sur 0 -- -- 53
2020-10-25 19:00:00 18.1 18 Sudoeste 35 Sudoeste 0 -- -- 46
2020-10-25 18:00:00 19.6 24 Sudoeste 39 Sudoeste 0 -- -- 40
2020-10-25 17:00:00 22 21 Sudoeste 32 Sudoeste 0 -- -- 32
2020-10-25 16:00:00 23.4 16 Sudoeste 31 Sudoeste 0 -- -- 30
2020-10-25 15:00:00 23.7 15 Sudoeste 32 Sudoeste 0 -- -- 28
2020-10-25 14:00:00 22.8 22 Sudoeste 39 Sudoeste 0 -- -- 26
2020-10-25 13:00:00 22.1 24 Sudoeste 37 Sudoeste 0 -- -- 27
2020-10-25 12:00:00 20.7 15 Sudoeste 30 Sudoeste 0 -- -- 34
2020-10-25 11:00:00 18.2 22 Oeste 32 Oeste 0 -- -- 40
2020-10-25 10:00:00 15.8 18 Oeste 33 Oeste 0 -- -- 52
2020-10-25 09:00:00 13.5 15 Oeste 27 Noroeste 0 -- -- 57
2020-10-25 08:00:00 10.6 10 Norte 25 Noroeste 0 -- -- 69
2020-10-25 07:00:00 10.7 9 Nordeste 32 Oeste 0 -- -- 68
2020-10-25 06:00:00 12.1 19 Oeste 35 Oeste 0 -- -- 63
2020-10-25 05:00:00 12.3 19 Oeste 34 Oeste 0 -- -- 66
2020-10-25 04:00:00 11.1 12 Noroeste 25 Noroeste 0 -- -- 69
2020-10-25 03:00:00 10.8 12 Norte 22 Noroeste 0 -- -- 68
2020-10-25 02:00:00 12 14 Noroeste 18 Noroeste 0 -- -- 65
2020-10-25 01:00:00 11.9 12 Norte 15 Norte 0 -- -- 65
2020-10-25 00:00:00 10.4 8 Noroeste 12 Noroeste 0 -- -- 67
2020-10-24 23:00:00 10.2 5 Noroeste 9 Norte 0 -- -- 74
2020-10-24 22:00:00 10.8 5 Noroeste 8 Noroeste 0 -- -- 74
2020-10-24 21:00:00 12.7 5 Norte 9 Norte 0 -- -- 67
2020-10-24 20:00:00 14.9 3 Nordeste 10 Sudeste 0 -- -- 60
2020-10-24 19:00:00 18.2 9 Sudeste 19 Sudeste 0 -- -- 50
2020-10-24 18:00:00 20.7 15 Sudeste 26 Sur 0 -- -- 43
2020-10-24 17:00:00 22.9 5 Sur 16 Sudeste 0 -- -- 32
2020-10-24 16:00:00 22 7 Sudeste 14 Sur 0 -- -- 36
2020-10-24 15:00:00 21.3 11 Sur 19 Sudeste 0 -- -- 38
2020-10-24 14:00:00 20.2 6 Sur 18 Sur 0 -- -- 41
2020-10-24 13:00:00 19.3 5 Sudeste 17 Sudeste 0 -- -- 45
2020-10-24 12:00:00 17.5 9 Sur 19 Sudoeste 0 -- -- 52
2020-10-24 11:00:00 15.1 2 Sur 17 Noroeste 0 -- -- 62
2020-10-24 10:00:00 12 9 Norte 18 Norte 0 -- -- 71
2020-10-24 09:00:00 10 10 Norte 16 Norte 0 -- -- 78
2020-10-24 08:00:00 10 6 Norte 15 Norte 0 -- -- 76
2020-10-24 07:00:00 9 6 Norte 19 Norte 0 -- -- 78
2020-10-24 06:00:00 8.7 8 Norte 22 Norte 0 -- -- 78
2020-10-24 05:00:00 9.2 10 Norte 17 Noroeste 0 -- -- 72
2020-10-24 04:00:00 9.4 12 Norte 17 Noroeste 0 -- -- 71
2020-10-24 03:00:00 10 10 Norte 18 Oeste 0 -- -- 70
2020-10-24 02:00:00 12.3 13 Oeste 26 Sudoeste 0 -- -- 62
2020-10-24 01:00:00 10.5 4 Nordeste 19 Norte 0 -- -- 64
2020-10-24 00:00:00 11.3 11 Norte 14 Norte 0 -- -- 61
2020-10-23 23:00:00 11.8 7 Norte 20 Oeste 0 -- -- 57
2020-10-23 22:00:00 14.7 9 Oeste 26 Oeste 0 -- -- 47
2020-10-23 21:00:00 14.3 14 Noroeste 21 Oeste 0 -- -- 49
2020-10-23 20:00:00 15.6 12 Noroeste 18 Oeste 0 -- -- 45
2020-10-23 19:00:00 18.3 14 Oeste 32 Oeste 0 -- -- 39
2020-10-23 18:00:00 19.9 13 Sudoeste 28 Sudoeste 0 -- -- 36
2020-10-23 17:00:00 21.2 15 Oeste 33 Sudoeste 0 -- -- 37
2020-10-23 16:00:00 21.6 18 Sudoeste 35 Sur 0 -- -- 40
2020-10-23 15:00:00 21.1 22 Sudoeste 32 Sur 0 -- -- 40
2020-10-23 14:00:00 20.4 15 Sudoeste 30 Oeste 0 -- -- 43
2020-10-23 13:00:00 18.6 12 Oeste 27 Oeste 0 -- -- 48
2020-10-23 12:00:00 17.3 13 Oeste 23 Oeste 0 -- -- 55
2020-10-23 11:00:00 15.5 16 Oeste 29 Sudoeste 0 -- -- 68
2020-10-23 10:00:00 14.3 12 Oeste 21 Oeste 0 -- -- 75
2020-10-23 09:00:00 12.7 13 Oeste 28 Oeste 0 -- -- 78
2020-10-23 08:00:00 11.6 3 Norte 17 Nordeste 0 -- -- 82
2020-10-23 07:00:00 11.9 8 Norte 20 Noroeste 0 -- -- 82
2020-10-23 06:00:00 11.5 4 Sudoeste 14 Norte 0 -- -- 85
2020-10-23 05:00:00 12.5 11 Norte 18 Norte 0 -- -- 81
2020-10-23 04:00:00 13.5 7 Nordeste 16 Sur 0 -- -- 77
2020-10-23 03:00:00 13.9 5 Norte 14 Sudeste 0 -- -- 79
2020-10-23 02:00:00 14.3 5 Noroeste 15 Sudoeste 0 -- -- 78
2020-10-23 01:00:00 14.2 11 Sur 24 Sur 0 -- -- 80
2020-10-23 00:00:00 13.7 3 Sudoeste 9 Sudoeste 0 -- -- 88
2020-10-22 23:00:00 13.7 4 Norte 6 Norte 0 -- -- 91
2020-10-22 22:00:00 14.5 0 Calma 6 Sur 0 -- -- 87
2020-10-22 21:00:00 14.9 0 Calma 16 Este 0 -- -- 86
2020-10-22 20:00:00 15.5 3 Sudeste 6 Sur 0 -- -- 83
2020-10-22 19:00:00 15.8 2 Sur 4 Sur 0 -- -- 79
2020-10-22 18:00:00 15.7 2 Oeste 18 Oeste 0 -- -- 77
2020-10-22 17:00:00 16.5 9 Sudeste 14 Sudeste 0 -- -- 83
2020-10-22 16:00:00 16 11 Sudeste 14 Sudeste 0 -- -- 87
2020-10-22 15:00:00 16.8 0 Calma 4 Nordeste 0.4 -- -- 84
2020-10-22 14:00:00 16.5 0 Calma 9 Noroeste 1 -- -- 83
2020-10-22 13:00:00 16.8 2 Noroeste 10 Norte 0.4 -- -- 82
2020-10-22 12:00:00 16.2 6 Norte 10 Norte 0.2 -- -- 82
2020-10-22 11:00:00 15.7 2 Noroeste 6 Noroeste 0.2 -- -- 85
2020-10-22 10:00:00 15.4 7 Noroeste 13 Nordeste 0.2 -- -- 80
2020-10-22 09:00:00 16.4 3 Nordeste 23 Sudeste 0.2 -- -- 72
2020-10-22 08:00:00 15.8 0 Calma 8 Este 0 -- -- 63
2020-10-22 07:00:00 16.3 2 Nordeste 11 Este 0 -- -- 61
2020-10-22 06:00:00 17.1 7 Sudeste 16 Sudeste 0 -- -- 58
2020-10-22 05:00:00 17.6 13 Sudeste 17 Sudeste 0 -- -- 56
2020-10-22 04:00:00 17.2 5 Oeste 21 Sur 0 -- -- 58
2020-10-22 03:00:00 16.1 4 Norte 11 Norte 0 -- -- 64
2020-10-22 02:00:00 16.2 4 Norte 8 Este 0 -- -- 65
2020-10-22 01:00:00 16.9 4 Sudoeste 14 Noroeste 0 -- -- 62
2020-10-22 00:00:00 17 6 Norte 13 Nordeste 0 -- -- 62
2020-10-21 23:00:00 18.2 5 Sudoeste 23 Oeste 0 -- -- 57
2020-10-21 22:00:00 18.8 12 Oeste 20 Oeste 0 -- -- 55
2020-10-21 21:00:00 18.8 5 Noroeste 8 Noroeste 0 -- -- 51
2020-10-21 20:00:00 20 0 Calma 11 Este 0 -- -- 48
2020-10-21 19:00:00 21.3 5 Este 17 Sudeste 0 -- -- 45
2020-10-21 18:00:00 22.6 12 Sudeste 19 Sudeste 0 -- -- 43
2020-10-21 17:00:00 23.6 13 Sudeste 30 Sudeste 0 -- -- 41
2020-10-21 16:00:00 24.4 13 Sudeste 21 Este 0 -- -- 42
2020-10-21 15:00:00 25.9 6 Sudoeste 25 Sur 0 -- -- 32
2020-10-21 14:00:00 25 10 Este 21 Sudeste 0 -- -- 33
2020-10-21 13:00:00 24.1 8 Sudoeste 22 Oeste 0 -- -- 32
2020-10-21 12:00:00 22.6 12 Sudoeste 36 Sudoeste 0 -- -- 38
2020-10-21 11:00:00 21.3 14 Sudoeste 28 Sudoeste 0 -- -- 40
2020-10-21 10:00:00 19.3 10 Sudoeste 29 Oeste 0 -- -- 46
2020-10-21 09:00:00 17.8 13 Oeste 30 Oeste 0 -- -- 48
2020-10-21 08:00:00 18 18 Oeste 37 Oeste 0 -- -- 52
2020-10-21 07:00:00 18.9 19 Sudoeste 29 Sudoeste 0 -- -- 59
2020-10-21 06:00:00 19.2 11 Oeste 46 Oeste 0 -- -- 63
2020-10-21 05:00:00 19.9 23 Sudoeste 44 Sudoeste 0 -- -- 61
2020-10-21 04:00:00 20.2 23 Sudoeste 44 Oeste 0 -- -- 56
2020-10-21 03:00:00 16 9 Norte 17 Noroeste 0 -- -- 58
2020-10-21 02:00:00 13.7 5 Nordeste 10 Sudoeste 0 -- -- 71
2020-10-21 01:00:00 14.8 7 Sudoeste 13 Nordeste 0 -- -- 80
2020-10-21 00:00:00 14.6 3 Noroeste 12 Oeste 0 -- -- 72
2020-10-20 23:00:00 15.4 9 Sudoeste 14 Oeste 0 -- -- 82
2020-10-20 22:00:00 15.4 0 Calma 9 Noroeste 0 -- -- 67
2020-10-20 21:00:00 17.5 3 Norte 13 Este 0 -- -- 63
2020-10-20 20:00:00 18.5 9 Sudeste 17 Sudeste 0 -- -- 60
2020-10-20 19:00:00 19.8 14 Sudeste 23 Sudeste 0 -- -- 55
2020-10-20 18:00:00 21.2 16 Sudeste 30 Sudeste 0 -- -- 52
2020-10-20 17:00:00 22.9 23 Sudeste 30 Sudeste 0 -- -- 43
2020-10-20 16:00:00 21.8 16 Sudeste 22 Sudeste 0 -- -- 46
2020-10-20 15:00:00 22.4 13 Sudeste 21 Sudeste 0 -- -- 36
2020-10-20 14:00:00 21.8 14 Sudeste 22 Sur 0 -- -- 38
2020-10-20 13:00:00 21.5 11 Sur 18 Sur 0 -- -- 38
2020-10-20 12:00:00 18.4 5 Sur 10 Sudeste 0 -- -- 54
2020-10-20 11:00:00 15.6 3 Sudeste 5 Sudeste 0 -- -- 62
2020-10-20 10:00:00 12.9 3 Noroeste 8 Este 0 -- -- 75
2020-10-20 09:00:00 10.7 4 Noroeste 7 Noroeste 0 -- -- 83
2020-10-20 08:00:00 9.3 3 Sudoeste 8 Norte 0 -- -- 88
2020-10-20 07:00:00 9.9 4 Oeste 10 Noroeste 0 -- -- 84
2020-10-20 06:00:00 9.6 3 Norte 6 Noroeste 0 -- -- 88
2020-10-20 05:00:00 9.6 5 Noroeste 8 Norte 0 -- -- 91
2020-10-20 04:00:00 8.7 3 Norte 9 Noroeste 0 -- -- 89
2020-10-20 03:00:00 9.8 6 Noroeste 9 Noroeste 0 -- -- 91
2020-10-20 02:00:00 9.9 4 Norte 8 Noroeste 0 -- -- 89
2020-10-20 01:00:00 10.2 5 Noroeste 8 Noroeste 0 -- -- 86
2020-10-20 00:00:00 10.4 3 Noroeste 4 Noroeste 0 -- -- 87
2020-10-19 23:00:00 11.4 0 Calma 5 Norte 0 -- -- 81
2020-10-19 22:00:00 12 3 Norte 5 Nordeste 0 -- -- 80
2020-10-19 21:00:00 14.8 3 Sudeste 14 Sudeste 0 -- -- 74
2020-10-19 20:00:00 16.3 6 Este 19 Este 0 -- -- 66
2020-10-19 19:00:00 18.9 15 Este 23 Este 0 -- -- 54
2020-10-19 18:00:00 21.1 15 Sudeste 26 Este 0 -- -- 44
2020-10-19 17:00:00 22.6 14 Sudeste 26 Sudeste 0 -- -- 37
2020-10-19 16:00:00 22.7 15 Sudeste 24 Sudeste 0 -- -- 35
2020-10-19 15:00:00 22.6 14 Sudeste 25 Sudeste 0 -- -- 34
2020-10-19 14:00:00 21.8 12 Sudeste 23 Sudeste 0 -- -- 32
2020-10-19 13:00:00 20.5 12 Sudeste 21 Sudeste 0 -- -- 30
2020-10-19 12:00:00 18.2 6 Sur 12 Sur 0 -- -- 39
2020-10-19 11:00:00 14.5 3 Sur 6 Sur 0 -- -- 52
2020-10-19 10:00:00 9.7 0 Calma 3 Sudeste 0 -- -- 71
2020-10-19 09:00:00 5.1 0 Calma 2 Sudoeste 0 -- -- 85
2020-10-19 08:00:00 4.7 2 Noroeste 3 Sudoeste 0 -- -- 86
2020-10-19 07:00:00 5.2 0 Calma 10 Noroeste 0 -- -- 86
2020-10-19 06:00:00 5.7 5 Noroeste 10 Noroeste 0 -- -- 84
2020-10-19 05:00:00 6 4 Noroeste 5 Noroeste 0 -- -- 83
2020-10-19 04:00:00 6.9 2 Norte 8 Noroeste 0 -- -- 80
2020-10-19 03:00:00 6.9 3 Noroeste 12 Norte 0 -- -- 83
2020-10-19 02:00:00 8.3 2 Noroeste 12 Noroeste 0 -- -- 81
2020-10-19 01:00:00 9.2 8 Noroeste 10 Noroeste 0 -- -- 82
2020-10-19 00:00:00 8.8 4 Noroeste 7 Norte 0 -- -- 77
2020-10-18 23:00:00 10.2 5 Norte 8 Norte 0 -- -- 69
2020-10-18 22:00:00 11.9 0 Calma 4 Norte 0 -- -- 56
2020-10-18 21:00:00 13.4 2 Nordeste 10 Este 0 -- -- 53
2020-10-18 20:00:00 15.9 10 Este 14 Sudeste 0 -- -- 45
2020-10-18 19:00:00 19.5 10 Sudeste 21 Sudeste 0 -- -- 34
2020-10-18 18:00:00 21.6 15 Sudeste 25 Sudeste 0 -- -- 30
2020-10-18 17:00:00 22.8 15 Sudeste 29 Sur 0 -- -- 30
2020-10-18 16:00:00 22.2 15 Sudeste 30 Sudeste 0 -- -- 32
2020-10-18 15:00:00 22.6 17 Sudeste 27 Sudeste 0 -- -- 28
2020-10-18 14:00:00 22.9 14 Sur 22 Sudeste 0 -- -- 25
2020-10-18 13:00:00 21.7 11 Sudeste 19 Sudeste 0 -- -- 26
2020-10-18 12:00:00 19.8 5 Sur 9 Sudeste 0 -- -- 33
2020-10-18 11:00:00 15.6 4 Sur 6 Sur 0 -- -- 45
2020-10-18 10:00:00 10.7 3 Sudoeste 5 Sudoeste 0 -- -- 59
2020-10-18 09:00:00 6.5 0 Calma 3 Sudoeste 0 -- -- 75
2020-10-18 08:00:00 5.4 0 Calma 4 Sur 0 -- -- 76
2020-10-18 07:00:00 5.7 2 Sudoeste 3 Sudoeste 0 -- -- 74
2020-10-18 06:00:00 6.2 2 Sudoeste 4 Sudoeste 0 -- -- 74
2020-10-18 05:00:00 6.9 0 Calma 3 Sudoeste 0 -- -- 73
2020-10-18 04:00:00 8.4 0 Calma 16 Norte 0 -- -- 68
2020-10-18 03:00:00 7.9 2 Oeste 6 Sur 0 -- -- 69
2020-10-18 02:00:00 9.6 0 Calma 13 Noroeste 0 -- -- 67
2020-10-18 01:00:00 11.2 0 Calma 17 Noroeste 0 -- -- 61
2020-10-18 00:00:00 10.7 13 Noroeste 17 Noroeste 0 -- -- 65
2020-10-17 23:00:00 11 9 Noroeste 14 Noroeste 0 -- -- 61
2020-10-17 22:00:00 11 6 Noroeste 9 Noroeste 0 -- -- 62
2020-10-17 21:00:00 12.9 3 Norte 10 Nordeste 0 -- -- 56
2020-10-17 20:00:00 14.8 5 Este 18 Este 0 -- -- 53
2020-10-17 19:00:00 17.9 14 Este 23 Sudeste 0 -- -- 44
2020-10-17 18:00:00 19.6 12 Sudeste 21 Sudeste 0 -- -- 40
2020-10-17 17:00:00 21.3 15 Sudeste 27 Sur 0 -- -- 37
2020-10-17 16:00:00 23.7 13 Sur 22 Sur 0 -- -- 25
2020-10-17 15:00:00 23.3 12 Sudeste 22 Sur 0 -- -- 25
2020-10-17 14:00:00 22.2 8 Sur 21 Sur 0 -- -- 26
2020-10-17 13:00:00 20.2 4 Este 15 Sudeste 0 -- -- 30
2020-10-17 12:00:00 17.5 5 Nordeste 9 Este 0 -- -- 37
2020-10-17 11:00:00 15 2 Este 17 Norte 0 -- -- 45
2020-10-17 10:00:00 9.8 2 Nordeste 6 Sur 0 -- -- 59
2020-10-17 09:00:00 5 0 Calma 3 Sudoeste 0 -- -- 77
2020-10-17 08:00:00 4 2 Sur 6 Sur 0 -- -- 77
2020-10-17 07:00:00 4.6 3 Noroeste 5 Norte 0 -- -- 76
2020-10-17 06:00:00 4.9 2 Sudoeste 3 Oeste 0 -- -- 75
2020-10-17 05:00:00 5.8 0 Calma 3 Noroeste 0 -- -- 74
2020-10-17 04:00:00 6.2 2 Noroeste 5 Sudoeste 0 -- -- 76
2020-10-17 03:00:00 7.1 3 Sudoeste 6 Norte 0 -- -- 74
2020-10-17 02:00:00 8 2 Noroeste 14 Noroeste 0 -- -- 72
2020-10-17 01:00:00 8.7 3 Noroeste 11 Noroeste 0 -- -- 75
2020-10-17 00:00:00 10.1 7 Noroeste 18 Noroeste 0 -- -- 79
2020-10-16 23:00:00 10.2 10 Noroeste 11 Noroeste 0 -- -- 74
2020-10-16 22:00:00 10.2 6 Noroeste 8 Noroeste 0 -- -- 69
2020-10-16 21:00:00 12 2 Norte 10 Sudeste 0 -- -- 60
2020-10-16 20:00:00 13.8 9 Sudeste 19 Sudeste 0 -- -- 52
2020-10-16 19:00:00 17.1 15 Sudeste 23 Sudeste 0 -- -- 40
2020-10-16 18:00:00 18.7 15 Sudeste 25 Sudeste 0 -- -- 36
2020-10-16 17:00:00 20.3 16 Sudeste 28 Sudeste 0 -- -- 33
2020-10-16 16:00:00 20.6 20 Sudeste 35 Sudeste 0 -- -- 32
2020-10-16 15:00:00 20.8 15 Sudeste 30 Sudeste 0 -- -- 31
2020-10-16 14:00:00 20.4 5 Sur 19 Sudeste 0 -- -- 31
2020-10-16 13:00:00 19.5 9 Sur 17 Sudoeste 0 -- -- 33
2020-10-16 12:00:00 16.3 4 Nordeste 15 Norte 0 -- -- 35
2020-10-16 11:00:00 13.8 8 Noroeste 13 Noroeste 0 -- -- 42
2020-10-16 10:00:00 10.8 0 Calma 5 Sur 0 -- -- 51
2020-10-16 09:00:00 7.4 3 Sur 17 Noroeste 0 -- -- 60
2020-10-16 08:00:00 7.5 12 Noroeste 16 Norte 0 -- -- 60
2020-10-16 07:00:00 6.6 10 Norte 21 Noroeste 0 -- -- 61
2020-10-16 06:00:00 8 13 Noroeste 17 Norte 0 -- -- 58
2020-10-16 05:00:00 8.1 9 Noroeste 14 Noroeste 0 -- -- 57
2020-10-16 04:00:00 7.8 4 Norte 13 Norte 0 -- -- 58
2020-10-16 03:00:00 8.3 6 Norte 13 Norte 0 -- -- 58
2020-10-16 02:00:00 8.9 8 Norte 12 Norte 0 -- -- 59
2020-10-16 01:00:00 8.9 6 Norte 10 Norte 0 -- -- 67
2020-10-16 00:00:00 10.1 6 Noroeste 12 Noroeste 0 -- -- 71
2020-10-15 23:00:00 11.7 9 Noroeste 14 Noroeste 0 -- -- 68
2020-10-15 22:00:00 13 5 Noroeste 9 Norte 0 -- -- 66
2020-10-15 21:00:00 13.3 5 Norte 8 Este 0 -- -- 63
2020-10-15 20:00:00 15.2 5 Sudeste 18 Sudeste 0 -- -- 57
2020-10-15 19:00:00 17.1 12 Sudeste 28 Sudeste 0 -- -- 48
2020-10-15 18:00:00 19.2 15 Sudeste 33 Este 0 -- -- 36
2020-10-15 17:00:00 20 9 Nordeste 25 Norte 0 -- -- 26
2020-10-15 16:00:00 21 9 Norte 30 Nordeste 0 -- -- 24
2020-10-15 15:00:00 21.1 9 Oeste 28 Sudoeste 0 -- -- 26
2020-10-15 14:00:00 20.4 12 Sudoeste 29 Oeste 0 -- -- 26
2020-10-15 13:00:00 18.6 16 Noroeste 33 Noroeste 0 -- -- 29
2020-10-15 12:00:00 17.6 4 Sudoeste 20 Noroeste 0 -- -- 31
2020-10-15 11:00:00 15.7 4 Nordeste 13 Sudoeste 0 -- -- 36
2020-10-15 10:00:00 12.4 8 Sudeste 14 Este 0 -- -- 43
2020-10-15 09:00:00 6.4 3 Sudeste 7 Este 0 -- -- 55
2020-10-15 08:00:00 6.5 4 Sudeste 14 Oeste 0 -- -- 53
2020-10-15 07:00:00 6.2 7 Norte 11 Norte 0 -- -- 54
2020-10-15 06:00:00 6.4 3 Nordeste 5 Norte 0 -- -- 52
2020-10-15 05:00:00 9.7 3 Este 18 Noroeste 0 -- -- 44
2020-10-15 04:00:00 10 10 Noroeste 17 Noroeste 0 -- -- 44
2020-10-15 03:00:00 10 8 Noroeste 12 Noroeste 0 -- -- 45
2020-10-15 02:00:00 10.1 5 Norte 18 Noroeste 0 -- -- 44
2020-10-15 01:00:00 12.1 12 Noroeste 22 Noroeste 0 -- -- 40
2020-10-15 00:00:00 12.7 8 Noroeste 17 Oeste 0 -- -- 38
2020-10-14 23:00:00 14 10 Oeste 30 Noroeste 0 -- -- 35
2020-10-14 22:00:00 15.5 20 Noroeste 37 Noroeste 0 -- -- 32
2020-10-14 21:00:00 16.5 21 Noroeste 36 Noroeste 0 -- -- 27
2020-10-14 20:00:00 17.4 17 Noroeste 32 Noroeste 0 -- -- 30
2020-10-14 19:00:00 19.2 18 Noroeste 35 Noroeste 0 -- -- 31
2020-10-14 18:00:00 21.4 19 Oeste 39 Noroeste 0 -- -- 28
2020-10-14 17:00:00 23.1 20 Oeste 33 Oeste -- -- -- 28
2020-10-14 16:00:00 24.3 12 Sur 30 Sudoeste 0 -- -- 26
2020-10-14 15:00:00 23.4 13 Sudoeste 32 Oeste 0 -- -- 29
2020-10-14 14:00:00 22.8 19 Sudoeste 32 Sudoeste 0 -- -- 31
2020-10-14 13:00:00 22.5 18 Sudoeste 33 Sudoeste 0 -- -- 32
2020-10-14 12:00:00 20.9 19 Sudoeste 33 Sudoeste 0 -- -- 37
2020-10-14 11:00:00 19.8 11 Sur 18 Sudeste 0 -- -- 40
2020-10-14 10:00:00 15.4 3 Norte 11 Noroeste 0 -- -- 48
2020-10-14 09:00:00 13 7 Noroeste 14 Noroeste 0 -- -- 53
2020-10-14 08:00:00 12.2 8 Norte 19 Oeste 0 -- -- 53
2020-10-14 07:00:00 14.9 8 Oeste 16 Oeste 0 -- -- 46
2020-10-14 06:00:00 13.1 11 Noroeste 15 Noroeste 0 -- -- 52
2020-10-14 05:00:00 13.6 11 Noroeste 22 Noroeste 0 -- -- 51
2020-10-14 04:00:00 14.8 17 Noroeste 26 Noroeste 0 -- -- 48
2020-10-14 03:00:00 16.9 23 Oeste 33 Noroeste 0 -- -- 43
2020-10-14 02:00:00 12.4 5 Norte 16 Noroeste 0 -- -- 56
2020-10-14 01:00:00 13.5 10 Noroeste 15 Noroeste 0 -- -- 53
2020-10-14 00:00:00 12.4 0 Calma 14 Noroeste 0 -- -- 57
2020-10-13 23:00:00 13.1 6 Noroeste 10 Noroeste 0 -- -- 55
2020-10-13 22:00:00 13.7 5 Noroeste 9 Noroeste 0 -- -- 53
2020-10-13 21:00:00 16.4 5 Noroeste 9 Noroeste -- -- -- 47
2020-10-13 20:00:00 18.5 7 Este 22 Sudeste 0 -- -- 42
2020-10-13 19:00:00 22 15 Sudeste 24 Sudeste 0 -- -- 36
2020-10-13 18:00:00 24.3 21 Sudeste 28 Sudeste 0 -- -- 32
2020-10-13 17:00:00 24.5 16 Sudeste 26 Este 0 -- -- 32
2020-10-13 16:00:00 25.6 9 Sudeste 18 Sur 0 -- -- 31
2020-10-13 15:00:00 24.9 8 Este 18 Nordeste 0 -- -- 31
2020-10-13 14:00:00 23.7 9 Nordeste 21 Este 0 -- -- 34
2020-10-13 13:00:00 22.4 6 Noroeste 22 Oeste 0 -- -- 37
2020-10-13 12:00:00 21.4 6 Sudeste 11 Sudeste 0 -- -- 36
2020-10-13 11:00:00 18 4 Este 18 Noroeste 0 -- -- 39
2020-10-13 10:00:00 14.4 6 Oeste 19 Noroeste 0 -- -- 44
2020-10-13 09:00:00 12.1 13 Noroeste 20 Noroeste 0 -- -- 46
2020-10-13 08:00:00 9.1 2 Sur 10 Noroeste 0 -- -- 49
2020-10-13 07:00:00 9.5 8 Norte 30 Noroeste 0 -- -- 47
2020-10-13 06:00:00 8.5 3 Este 20 Noroeste 0 -- -- 51
2020-10-13 05:00:00 9.8 8 Noroeste 32 Noroeste 0 -- -- 48
2020-10-13 04:00:00 8.1 4 Nordeste 11 Norte 0 -- -- 56
2020-10-13 03:00:00 8.5 3 Nordeste 9 Noroeste 0 -- -- 56
2020-10-13 02:00:00 8.7 5 Norte 10 Noroeste 0 -- -- 59
2020-10-13 01:00:00 -- -- -- -- -- -- -- -- --
2020-10-13 00:00:00 9.2 2 Noroeste 12 Noroeste 0 -- -- 62
2020-10-12 23:00:00 9.9 4 Noroeste 9 Noroeste 0 -- -- 62
2020-10-12 22:00:00 11.2 4 Norte 9 Norte 0 -- -- 56
2020-10-12 21:00:00 12.3 4 Norte 8 Este 0 -- -- 51
2020-10-12 20:00:00 15.2 6 Este 16 Sudeste 0 -- -- 43
2020-10-12 19:00:00 18.6 12 Sudeste 21 Sudeste 0 -- -- 35
2020-10-12 18:00:00 20.7 15 Sudeste 28 Sudeste 0 -- -- 28
2020-10-12 17:00:00 22.8 7 Sudeste 17 Sudeste 0 -- -- 24
2020-10-12 16:00:00 20.8 9 Norte 22 Norte 0 -- -- 25
2020-10-12 15:00:00 20.2 13 Norte 27 Norte 0 -- -- 27
2020-10-12 14:00:00 18.8 15 Nordeste 27 Norte 0 -- -- 29
2020-10-12 13:00:00 17.1 14 Nordeste 35 Norte 0 -- -- 33
2020-10-12 12:00:00 15.7 18 Norte 28 Norte 0 -- -- 36
2020-10-12 11:00:00 14.2 16 Norte 29 Norte 0 -- -- 39
2020-10-12 10:00:00 12.6 18 Noroeste 24 Noroeste 0 -- -- 42
2020-10-12 09:00:00 9.4 11 Norte 23 Norte 0 -- -- 50
2020-10-12 08:00:00 8.3 15 Norte 23 Norte 0 -- -- 53
2020-10-12 07:00:00 9.3 19 Norte 25 Norte 0 -- -- 51
2020-10-12 06:00:00 9.4 13 Norte 22 Norte 0 -- -- 51
2020-10-12 05:00:00 10 15 Norte 21 Norte 0 -- -- 49
2020-10-12 04:00:00 -- -- -- -- -- -- -- -- --
2020-10-12 03:00:00 10.8 15 Noroeste 22 Noroeste 0 -- -- 44
2020-10-12 02:00:00 12.3 14 Noroeste 28 Norte 0 -- -- 40
2020-10-12 01:00:00 14.1 21 Norte 33 Norte 0 -- -- 36
2020-10-12 00:00:00 12.8 11 Norte 22 Norte 0 -- -- 38
2020-10-11 23:00:00 11.5 3 Nordeste 8 Sudoeste 0 -- -- 51
2020-10-11 22:00:00 12.9 3 Norte 8 Este 0 -- -- 39
2020-10-11 21:00:00 -- -- -- -- -- -- -- -- --
2020-10-11 20:00:00 -- -- -- -- -- -- -- -- --
2020-10-11 19:00:00 20.7 14 Nordeste 26 Norte 0 -- -- 24
2020-10-11 18:00:00 21.8 5 Nordeste 17 Este 0 -- -- 33
2020-10-11 17:00:00 22.1 6 Sur 17 Sudeste 0 -- -- 56
2020-10-11 16:00:00 22 9 Sur 22 Sudeste 0 -- -- 56
2020-10-11 15:00:00 20.7 11 Sur 22 Este 0 -- -- 61
2020-10-11 14:00:00 19.4 14 Este 22 Este 0 -- -- 68
2020-10-11 13:00:00 19.4 10 Sudeste 30 Nordeste 0 -- -- 70
2020-10-11 12:00:00 19.4 13 Sudeste 21 Sudeste 0 -- -- 72
2020-10-11 11:00:00 18.4 5 Sur 9 Sur 0 -- -- 75
2020-10-11 10:00:00 17 3 Sudeste 6 Este 0 -- -- 81
2020-10-11 09:00:00 15.9 2 Nordeste 4 Nordeste 0 -- -- 85
2020-10-11 08:00:00 15.8 0 Calma 6 Noroeste 0 -- -- 86
2020-10-11 07:00:00 16.1 4 Noroeste 11 Noroeste 0 -- -- 85
2020-10-11 06:00:00 15.9 3 Este 5 Este 0 -- -- 87
2020-10-11 05:00:00 16 3 Sur 5 Sur 0 -- -- 87
2020-10-11 04:00:00 15.7 3 Noroeste 10 Noroeste 0 -- -- 89
2020-10-11 03:00:00 15.9 5 Norte 12 Norte 0 -- -- 87
2020-10-11 02:00:00 16.1 2 Oeste 6 Oeste 0 -- -- 87
2020-10-11 01:00:00 15.9 3 Este 4 Nordeste 0 -- -- 86
2020-10-11 00:00:00 15.8 3 Nordeste 6 Norte 0 -- -- 86
2020-10-10 23:00:00 15.6 3 Norte 8 Este 0 -- -- 85
2020-10-10 22:00:00 16.2 0 Calma 7 Nordeste 0 -- -- 80
2020-10-10 21:00:00 17.1 6 Nordeste 10 Nordeste 0 -- -- 78
2020-10-10 20:00:00 19.1 5 Sudeste 17 Sudeste 0 -- -- 71
2020-10-10 19:00:00 21.1 12 Sudeste 22 Sudeste 0 -- -- 65
2020-10-10 18:00:00 22.8 15 Sudeste 27 Este 0 -- -- 60
2020-10-10 17:00:00 23.4 18 Sudeste 29 Este 0 -- -- 58
2020-10-10 16:00:00 25.1 19 Sudeste 28 Sudeste 0 -- -- 54
2020-10-10 15:00:00 25.3 15 Sudeste 23 Sudeste 0 -- -- 53
2020-10-10 14:00:00 24.6 11 Sudeste 19 Sur 0 -- -- 54
2020-10-10 13:00:00 23.5 12 Sudeste 19 Sudeste 0 -- -- 57
2020-10-10 12:00:00 21.1 5 Sur 11 Sur 0 -- -- 64
2020-10-10 11:00:00 18.8 4 Sur 7 Sur 0 -- -- 75
2020-10-10 10:00:00 16 4 Nordeste 9 Noroeste 0 -- -- 86
2020-10-10 09:00:00 12.7 7 Noroeste 8 Noroeste 0 -- -- 88
2020-10-10 08:00:00 12.4 2 Sur 4 Sur 0 -- -- 88
2020-10-10 07:00:00 12 3 Sudoeste 4 Oeste 0 -- -- 90
2020-10-10 06:00:00 12.2 0 Calma 12 Noroeste 0 -- -- 88
2020-10-10 05:00:00 13.5 10 Noroeste 12 Noroeste 0 -- -- 88
2020-10-10 04:00:00 12.4 4 Noroeste 7 Norte 0 -- -- 89
2020-10-10 03:00:00 13.5 2 Norte 6 Noroeste 0 -- -- 87
2020-10-10 02:00:00 13.7 4 Noroeste 7 Norte 0 -- -- 88
2020-10-10 01:00:00 14.2 3 Norte 5 Norte 0 -- -- 84
2020-10-10 00:00:00 15.1 0 Calma 4 Noroeste 0 -- -- 80
2020-10-09 23:00:00 16.4 3 Noroeste 6 Norte 0 -- -- 79
2020-10-09 22:00:00 17.2 3 Noroeste 5 Norte 0 -- -- 75
2020-10-09 21:00:00 18.7 5 Nordeste 7 Este 0 -- -- 73
2020-10-09 20:00:00 20.8 5 Este 16 Sudeste 0 -- -- 66
2020-10-09 19:00:00 22.9 10 Sudeste 17 Sudeste 0 -- -- 59
2020-10-09 18:00:00 25.2 10 Sudeste 19 Este 0 -- -- 50
2020-10-09 17:00:00 26.4 12 Sudeste 19 Sudeste 0 -- -- 43
2020-10-09 16:00:00 25.7 12 Sudeste 17 Sudeste 0 -- -- 42
2020-10-09 15:00:00 26.3 9 Sudeste 24 Este 0 -- -- 42
2020-10-09 14:00:00 26.7 12 Sudeste 22 Este 0 -- -- 40
2020-10-09 13:00:00 26.1 10 Sudeste 17 Sudeste 0 -- -- 40
2020-10-09 12:00:00 23.1 3 Sudeste 8 Este 0 -- -- 52
2020-10-09 11:00:00 19.7 5 Nordeste 10 Norte 0 -- -- 68
2020-10-09 10:00:00 16.1 0 Calma 5 Sudoeste 0 -- -- 83
2020-10-09 09:00:00 12.9 0 Calma 3 Norte -- -- -- 94
2020-10-09 08:00:00 11.9 2 Noroeste 5 Noroeste 0 -- -- 93
2020-10-09 07:00:00 12.9 3 Noroeste 15 Noroeste 0 -- -- 93
2020-10-09 06:00:00 13.9 10 Norte 14 Noroeste 0 -- -- 92
2020-10-09 05:00:00 13.8 9 Norte 12 Noroeste 0 -- -- 92
2020-10-09 04:00:00 14 8 Noroeste 13 Noroeste 0 -- -- 92
2020-10-09 03:00:00 14.1 5 Norte 9 Norte 0 -- -- 90
2020-10-09 02:00:00 15.4 3 Norte 7 Sudeste 0 -- -- 90
2020-10-09 01:00:00 14.8 0 Calma 7 Sudoeste 0 -- -- 91
2020-10-09 00:00:00 15 5 Norte 5 Norte 0 -- -- 87
2020-10-08 23:00:00 16.7 3 Este 6 Sudeste 0 -- -- 77
2020-10-08 22:00:00 17.4 5 Sudeste 8 Este 0 -- -- 80
2020-10-08 21:00:00 18.7 4 Sudeste 16 Este 0 -- -- 75
2020-10-08 20:00:00 20.6 8 Este 23 Este 0 -- -- 68
2020-10-08 19:00:00 22.9 14 Este 22 Este 0 -- -- 55
2020-10-08 18:00:00 25.4 12 Sudeste 25 Este 0 -- -- 45
2020-10-08 17:00:00 26.4 12 Sudeste 23 Sudeste 0 -- -- 42
2020-10-08 16:00:00 26.2 11 Este 25 Sudeste 0 -- -- 40
2020-10-08 15:00:00 26.2 12 Sudeste 25 Sudeste 0 -- -- 42
2020-10-08 14:00:00 25.7 10 Sudeste 23 Sur 0 -- -- 41
2020-10-08 13:00:00 25 10 Sudeste 19 Sudeste 0 -- -- 42
2020-10-08 12:00:00 23 7 Sur 13 Sudeste 0 -- -- 44
2020-10-08 11:00:00 20.8 6 Sur 11 Sudoeste 0 -- -- 50
2020-10-08 10:00:00 15.5 4 Sudoeste 6 Sudoeste 0 -- -- 63
2020-10-08 09:00:00 12.2 2 Oeste 4 Oeste 0 -- -- 75
2020-10-08 08:00:00 11 0 Calma 3 Oeste 0 -- -- 76
2020-10-08 07:00:00 11 0 Calma 6 Noroeste 0 -- -- 74
2020-10-08 06:00:00 11.7 2 Sudoeste 5 Noroeste 0 -- -- 74
2020-10-08 05:00:00 12.4 0 Calma 9 Noroeste 0 -- -- 72
2020-10-08 04:00:00 12.8 0 Calma 6 Oeste 0 -- -- 70
2020-10-08 03:00:00 13.8 2 Noroeste 8 Noroeste 0 -- -- 68
2020-10-08 02:00:00 14.9 5 Oeste 12 Noroeste 0 -- -- 64
2020-10-08 01:00:00 15.5 8 Noroeste 12 Norte 0 -- -- 63
2020-10-08 00:00:00 16.2 6 Noroeste 10 Noroeste 0 -- -- 61
2020-10-07 23:00:00 17.2 6 Noroeste 10 Noroeste 0 -- -- 56
2020-10-07 22:00:00 18.5 5 Noroeste 12 Norte 0 -- -- 53
2020-10-07 21:00:00 19.9 5 Nordeste 10 Este 0 -- -- 46
2020-10-07 20:00:00 23.4 8 Este 21 Sudeste 0 -- -- 40
2020-10-07 19:00:00 27 14 Sudeste 28 Este 0 -- -- 34
2020-10-07 18:00:00 29.2 14 Sudeste 28 Sudeste 0 -- -- 29
2020-10-07 17:00:00 30.4 5 Sur 20 Este 0 -- -- 23
2020-10-07 16:00:00 30.2 8 Sur 16 Sur 0 -- -- 24
2020-10-07 15:00:00 29.1 5 Nordeste 21 Nordeste 0 -- -- 26
2020-10-07 14:00:00 27.6 6 Noroeste 18 Nordeste 0 -- -- 28
2020-10-07 13:00:00 26.6 9 Norte 17 Noroeste 0 -- -- 37
2020-10-07 12:00:00 24.9 10 Norte 19 Norte 0 -- -- 42
2020-10-07 11:00:00 22.7 2 Sur 8 Sudeste 0 -- -- 43
2020-10-07 10:00:00 17.4 2 Sur 9 Noroeste 0 -- -- 54
2020-10-07 09:00:00 13.7 3 Noroeste 15 Norte 0 -- -- 62
2020-10-07 08:00:00 14.9 14 Norte 21 Noroeste 0 -- -- 58
2020-10-07 07:00:00 14.5 12 Noroeste 17 Noroeste 0 -- -- 59
2020-10-07 06:00:00 14.1 4 Oeste 18 Noroeste 0 -- -- 59
2020-10-07 05:00:00 13.9 3 Oeste 12 Noroeste 0 -- -- 59
2020-10-07 04:00:00 15.4 6 Noroeste 23 Noroeste 0 -- -- 54
2020-10-07 03:00:00 12.7 2 Sudoeste 8 Norte 0 -- -- 62
2020-10-07 02:00:00 13 4 Sudoeste 8 Sudoeste 0 -- -- 60
2020-10-07 01:00:00 13.8 2 Nordeste 9 Sudoeste 0 -- -- 59
2020-10-07 00:00:00 14.5 7 Norte 15 Norte 0 -- -- 57
2020-10-06 23:00:00 15.9 4 Sur 12 Noroeste 0 -- -- 51
2020-10-06 22:00:00 15.8 5 Norte 12 Norte 0 -- -- 52
2020-10-06 21:00:00 16.9 4 Norte 8 Norte 0 -- -- 47
2020-10-06 20:00:00 20 6 Nordeste 16 Este 0 -- -- 42
2020-10-06 19:00:00 24.1 12 Sudeste 18 Este 0 -- -- 33
2020-10-06 18:00:00 26.5 13 Sudeste 21 Sudeste 0 -- -- 29
2020-10-06 17:00:00 27.8 4 Sudeste 16 Este 0 -- -- 26
2020-10-06 16:00:00 27.4 5 Sudoeste 18 Este 0 -- -- 26
2020-10-06 15:00:00 26.2 6 Sudoeste 18 Sudeste 0 -- -- 27
2020-10-06 14:00:00 24.7 8 Sur 19 Sur 0 -- -- 29
2020-10-06 13:00:00 22.1 5 Este 13 Nordeste 0 -- -- 34
2020-10-06 12:00:00 21.4 4 Sur 11 Sudeste 0 -- -- 34
2020-10-06 11:00:00 18.4 3 Nordeste 9 Sur 0 -- -- 43
2020-10-06 10:00:00 15.5 3 Sudeste 9 Norte 0 -- -- 51
2020-10-06 09:00:00 11 2 Oeste 9 Noroeste 0 -- -- 67
2020-10-06 08:00:00 8.7 3 Noroeste 6 Noroeste 0 -- -- 73
2020-10-06 07:00:00 8.2 4 Noroeste 9 Noroeste 0 -- -- 76
2020-10-06 06:00:00 8.3 3 Noroeste 5 Norte 0 -- -- 76
2020-10-06 05:00:00 9.5 4 Noroeste 9 Norte 0 -- -- 71
2020-10-06 04:00:00 9 4 Noroeste 7 Norte 0 -- -- 72
2020-10-06 03:00:00 9.4 3 Oeste 8 Norte 0 -- -- 73
2020-10-06 02:00:00 9.6 3 Noroeste 8 Nordeste 0 -- -- 75
2020-10-06 01:00:00 10.8 3 Norte 12 Noroeste 0 -- -- 72
2020-10-06 00:00:00 11.5 3 Oeste 10 Noroeste 0 -- -- 69
2020-10-05 23:00:00 12.3 3 Noroeste 8 Norte 0 -- -- 70
2020-10-05 22:00:00 13.7 5 Noroeste 8 Noroeste 0 -- -- 69
2020-10-05 21:00:00 15.1 5 Nordeste 9 Nordeste 0 -- -- 65
2020-10-05 20:00:00 17.6 3 Sudeste 16 Sudeste 0 -- -- 55
2020-10-05 19:00:00 20.2 12 Sudeste 22 Sudeste 0 -- -- 48
2020-10-05 18:00:00 21.2 13 Este 26 Sudeste 0 -- -- 43
2020-10-05 17:00:00 23.5 20 Sudeste 29 Sudeste 0 -- -- 38
2020-10-05 16:00:00 25 10 Sur 25 Sur 0 -- -- 28
2020-10-05 15:00:00 23.7 11 Sudoeste 23 Sudoeste 0 -- -- 30
2020-10-05 14:00:00 21.8 7 Oeste 21 Sudoeste 0 -- -- 34
2020-10-05 13:00:00 20.8 10 Sudoeste 22 Sudoeste 0 -- -- 37
2020-10-05 12:00:00 18.8 6 Sudoeste 21 Sudoeste 0 -- -- 44
2020-10-05 11:00:00 16.8 12 Noroeste 22 Oeste 0 -- -- 53
2020-10-05 10:00:00 14.3 10 Noroeste 22 Noroeste 0 -- -- 64
2020-10-05 09:00:00 13.2 8 Noroeste 16 Oeste 0 -- -- 69
2020-10-05 08:00:00 11.9 7 Oeste 14 Noroeste 0 -- -- 71
2020-10-05 07:00:00 12.8 11 Norte 16 Noroeste 0 -- -- 69
2020-10-05 06:00:00 13.5 8 Noroeste 18 Oeste 0 -- -- 68
2020-10-05 05:00:00 14.7 11 Noroeste 28 Noroeste 0 -- -- 63
2020-10-05 04:00:00 15.5 17 Oeste 27 Oeste 0 -- -- 60
2020-10-05 03:00:00 15.3 8 Oeste 18 Oeste 0 -- -- 58
2020-10-05 02:00:00 15.8 9 Oeste 16 Oeste 0 -- -- 57
2020-10-05 01:00:00 15 5 Oeste 18 Sudoeste 0 -- -- 58
2020-10-05 00:00:00 14.6 3 Oeste 13 Oeste 0 -- -- 55
2020-10-04 23:00:00 15.7 8 Sudoeste 11 Sudoeste 0 -- -- 52
2020-10-04 22:00:00 17 4 Sudoeste 31 Noroeste 0 -- -- 47
2020-10-04 21:00:00 17.7 15 Oeste 33 Oeste 0 -- -- 44
2020-10-04 20:00:00 18.7 14 Oeste 32 Oeste 0 -- -- 41
2020-10-04 19:00:00 21 19 Oeste 37 Oeste 0 -- -- 38
2020-10-04 18:00:00 23.1 23 Sudoeste 35 Noroeste 0 -- -- 35
2020-10-04 17:00:00 23.2 24 Noroeste 39 Oeste 0 -- -- 35
2020-10-04 16:00:00 24.2 17 Sudoeste 34 Oeste 0 -- -- 30
2020-10-04 15:00:00 22.7 20 Sudoeste 43 Sudoeste 0 -- -- 32
2020-10-04 14:00:00 21.4 23 Sudoeste 35 Sudoeste 0 -- -- 33
2020-10-04 13:00:00 19.5 19 Oeste 35 Oeste 0 -- -- 35
2020-10-04 12:00:00 18.8 17 Sudoeste 40 Sudoeste 0 -- -- 39
2020-10-04 11:00:00 16.3 14 Sudoeste 32 Oeste 0 -- -- 45
2020-10-04 10:00:00 13.8 17 Oeste 29 Sudoeste 0 -- -- 52
2020-10-04 09:00:00 11.5 7 Oeste 25 Oeste 0 -- -- 57
2020-10-04 08:00:00 11 19 Oeste 27 Oeste 0 -- -- 57
2020-10-04 07:00:00 9.8 6 Sudeste 29 Oeste 0 -- -- 58
2020-10-04 06:00:00 10.1 7 Noroeste 20 Oeste 0 -- -- 57
2020-10-04 05:00:00 9.6 9 Noroeste 17 Noroeste 0 -- -- 59
2020-10-04 04:00:00 9.8 6 Noroeste 17 Noroeste 0 -- -- 59
2020-10-04 03:00:00 10.3 9 Norte 15 Norte 0 -- -- 58
2020-10-04 02:00:00 10.9 6 Noroeste 23 Oeste 0 -- -- 56
2020-10-04 01:00:00 10.9 8 Noroeste 18 Oeste 0 -- -- 56
2020-10-04 00:00:00 11 8 Norte 14 Noroeste 0 -- -- 52
2020-10-03 23:00:00 12.8 7 Oeste 24 Oeste 0 -- -- 46
2020-10-03 22:00:00 13.7 17 Oeste 36 Oeste 0 -- -- 41
2020-10-03 21:00:00 14.8 25 Oeste 40 Oeste 0 -- -- 42
2020-10-03 20:00:00 16.1 23 Oeste 34 Oeste 0 -- -- 35
2020-10-03 19:00:00 18.4 18 Sudoeste 29 Sudoeste 0 -- -- 32
2020-10-03 18:00:00 19.5 19 Sudoeste 33 Sudoeste 0 -- -- 30
2020-10-03 17:00:00 20 15 Sudoeste 31 Sudoeste 0 -- -- 30
2020-10-03 16:00:00 19.1 13 Sudoeste 33 Oeste 0 -- -- 32
2020-10-03 15:00:00 18.3 18 Oeste 38 Oeste 0 -- -- 35
2020-10-03 14:00:00 16.9 26 Oeste 40 Sudoeste 0 -- -- 41
2020-10-03 13:00:00 16.2 21 Sudoeste 36 Oeste 0 -- -- 44
2020-10-03 12:00:00 15.1 19 Sudoeste 35 Sudoeste 0 -- -- 46
2020-10-03 11:00:00 13.4 14 Sudoeste 27 Oeste 0 -- -- 51
2020-10-03 10:00:00 11.4 15 Oeste 27 Oeste 0 -- -- 57
2020-10-03 09:00:00 9.5 11 Oeste 32 Oeste 0 -- -- 66
2020-10-03 08:00:00 7.7 6 Nordeste 36 Oeste 0 -- -- 70
2020-10-03 07:00:00 9.8 24 Oeste 37 Oeste 0 -- -- 60
2020-10-03 06:00:00 9.6 11 Oeste 21 Oeste 0 -- -- 62
2020-10-03 05:00:00 8.1 0 Calma 10 Sudeste 0 -- -- 71
2020-10-03 04:00:00 8.2 3 Oeste 17 Oeste 0 -- -- 72
2020-10-03 03:00:00 9.8 6 Oeste 18 Oeste 0 -- -- 67
2020-10-03 02:00:00 10.9 6 Oeste 30 Oeste 0 -- -- 67
2020-10-03 01:00:00 10.9 10 Oeste 28 Oeste 0 -- -- 66
2020-10-03 00:00:00 12.6 13 Oeste 38 Oeste 0 -- -- 55
2020-10-02 23:00:00 12 13 Noroeste 27 Noroeste 0 -- -- 62
2020-10-02 22:00:00 12.9 10 Oeste 33 Oeste 0 -- -- 60
2020-10-02 21:00:00 13 23 Oeste 45 Oeste 0.4 -- -- 64
2020-10-02 20:00:00 12.7 23 Noroeste 49 Noroeste 0.4 -- -- 74
2020-10-02 19:00:00 15.2 24 Norte 68 Oeste 1 -- -- 78
2020-10-02 18:00:00 19.4 34 Oeste 74 Sudoeste 0 -- -- 70
2020-10-02 17:00:00 22.8 36 Sudoeste 75 Sudoeste 0 -- -- 49
2020-10-02 16:00:00 22.9 40 Sudoeste 60 Sudoeste 0 -- -- 48
2020-10-02 15:00:00 21.9 34 Oeste 64 Oeste 0 -- -- 50
2020-10-02 14:00:00 20.4 31 Sudoeste 66 Oeste 0 -- -- 52
2020-10-02 13:00:00 18.9 39 Oeste 63 Oeste 0 -- -- 54
2020-10-02 12:00:00 18.1 26 Sudoeste 52 Sudoeste 0 -- -- 55
2020-10-02 11:00:00 17.6 24 Oeste 62 Oeste 0 -- -- 56
2020-10-02 10:00:00 17.3 36 Oeste 67 Oeste 0 -- -- 57
2020-10-02 09:00:00 17 23 Oeste 37 Sudoeste 0 -- -- 58
2020-10-02 08:00:00 17.2 16 Sudoeste 37 Oeste 0 -- -- 57
2020-10-02 07:00:00 18.2 21 Oeste 39 Oeste 0 -- -- 51
2020-10-02 06:00:00 18 15 Sudoeste 41 Sudoeste 0 -- -- 58
2020-10-02 05:00:00 18.4 28 Oeste 53 Oeste 0 -- -- 60
2020-10-02 04:00:00 18.7 19 Oeste 46 Oeste 0 -- -- 57
2020-10-02 03:00:00 19.4 9 Sudoeste 34 Oeste 0 -- -- 50
2020-10-02 02:00:00 20 18 Sudoeste 39 Sudoeste 0 -- -- 47
2020-10-02 01:00:00 19.5 10 Sudoeste 21 Sur 0 -- -- 46
2020-10-02 00:00:00 20 11 Sudoeste 25 Sudoeste 0 -- -- 38
2020-10-01 23:00:00 21.5 10 Noroeste 35 Oeste 0 -- -- 32
2020-10-01 22:00:00 23.3 21 Oeste 37 Oeste 0 -- -- 29
2020-10-01 21:00:00 24 9 Oeste 33 Oeste 0 -- -- 26
2020-10-01 20:00:00 25.3 14 Sudoeste 32 Oeste 0 -- -- 22
2020-10-01 19:00:00 27.3 21 Oeste 32 Oeste 0 -- -- 19
2020-10-01 18:00:00 28.9 23 Sudoeste 37 Sudoeste 0 -- -- 18
2020-10-01 17:00:00 30.5 19 Sudoeste 33 Sudoeste 0 -- -- 17
2020-10-01 16:00:00 30.1 18 Sudoeste 39 Sudoeste 0 -- -- 22
2020-10-01 15:00:00 29.4 17 Sudoeste 30 Sudoeste 0 -- -- 24
2020-10-01 14:00:00 28.2 17 Sudoeste 31 Sudoeste 0 -- -- 26
2020-10-01 13:00:00 27 20 Sudoeste 33 Oeste 0 -- -- 30
2020-10-01 12:00:00 25.2 18 Oeste 32 Oeste 0 -- -- 36
2020-10-01 11:00:00 23 10 Sudoeste 31 Sudoeste 0 -- -- 42
2020-10-01 10:00:00 20.6 11 Sudoeste 26 Sudoeste 0 -- -- 48
2020-10-01 09:00:00 17.6 10 Norte 21 Nordeste 0 -- -- 52
2020-10-01 08:00:00 16.4 11 Norte 17 Norte 0 -- -- 51
2020-10-01 07:00:00 17.1 10 Norte 18 Norte 0 -- -- 48
2020-10-01 06:00:00 17.9 8 Norte 15 Norte 0 -- -- 46
2020-10-01 05:00:00 17 5 Nordeste 24 Norte 0 -- -- 55
2020-10-01 04:00:00 17.8 9 Norte 18 Norte 0 -- -- 48
2020-10-01 03:00:00 18.3 12 Norte 21 Norte 0 -- -- 52
2020-10-01 02:00:00 18.1 4 Este 20 Norte 0 -- -- 69
2020-10-01 01:00:00 17.8 10 Norte 16 Norte 0 -- -- 74
2020-10-01 00:00:00 17.6 8 Norte 14 Norte 0 -- -- 76
2020-09-30 23:00:00 17.5 6 Noroeste 10 Noroeste 0 -- -- 76
2020-09-30 22:00:00 17.8 6 Noroeste 8 Noroeste 0 -- -- 74
2020-09-30 21:00:00 19.3 3 Nordeste 9 Nordeste 0 -- -- 71
2020-09-30 20:00:00 20.9 7 Este 17 Este 0 -- -- 65
2020-09-30 19:00:00 22.7 12 Este 19 Sudeste 0 -- -- 58
2020-09-30 18:00:00 25 13 Sudeste 20 Sudeste 0 -- -- 48
2020-09-30 17:00:00 26.5 10 Sudeste 18 Este 0 -- -- 40
2020-09-30 16:00:00 26.4 10 Este 15 Sudeste 0 -- -- 37
2020-09-30 15:00:00 23.7 6 Sudeste 15 Sudeste 0 -- -- 42
2020-09-30 14:00:00 24.6 10 Sudeste 18 Sudeste 0 -- -- 41
2020-09-30 13:00:00 24.2 8 Sudeste 16 Sur 0 -- -- 45
2020-09-30 12:00:00 23 6 Sudeste 12 Sudeste 0 -- -- 51
2020-09-30 11:00:00 20 4 Nordeste 8 Nordeste 0 -- -- 61
2020-09-30 10:00:00 16.3 4 Norte 9 Norte 0 -- -- 77
2020-09-30 09:00:00 12.9 3 Sur 6 Norte 0 -- -- 88
2020-09-30 08:00:00 11.3 2 Sudoeste 6 Noroeste 0 -- -- 88
2020-09-30 07:00:00 11.3 6 Norte 9 Norte 0 -- -- 90
2020-09-30 06:00:00 11.1 2 Norte 4 Sudoeste 0 -- -- 88
2020-09-30 05:00:00 11.9 5 Sudoeste 8 Sudoeste 0 -- -- 88
2020-09-30 04:00:00 12.3 3 Norte 9 Norte 0 -- -- 86
2020-09-30 03:00:00 13 5 Norte 9 Norte 0 -- -- 85
2020-09-30 02:00:00 13.5 0 Calma 10 Norte 0 -- -- 82
2020-09-30 01:00:00 13.8 5 Norte 10 Norte 0 -- -- 82
2020-09-30 00:00:00 13.7 5 Norte 8 Norte 0 -- -- 82